Terminal Aerodrome Forecast
Issued by NWS

Current Version | Previous Version | Graphics & Text | Print | Product List | Glossary On
Versions: 1 2 3 4 5 6 7 8 9 10 11 12 13 14 15 16 17 18 19 20
000
FTUS41 KPBZ 200530
TAFMGW
TAF
KMGW 200530Z 2006/2106 00000KT P6SM BKN250
     FM201000 14008KT 6SM -RA OVC050
     FM201200 14009KT 5SM -RA BKN015 OVC025
     FM201400 17009KT 2SM -RA OVC008
     FM202100 20009KT P6SM SCT010 OVC015=

USA.gov is the U.S. government's official web portal to all federal, state and local government web resources and services.